createdAt,value
2023-04-09T00:01:19.505Z,8.40
2023-04-09T00:03:53.917Z,8.40
2023-04-09T00:06:27.993Z,8.40
2023-04-09T00:09:02.324Z,8.40
2023-04-09T00:11:36.705Z,8.40
2023-04-09T00:14:11.342Z,8.40
2023-04-09T00:16:45.815Z,8.40
2023-04-09T00:19:20.068Z,8.40
2023-04-09T00:21:54.191Z,8.42
2023-04-09T00:24:28.558Z,8.40
2023-04-09T00:27:02.577Z,8.40
2023-04-09T00:29:36.828Z,8.40
2023-04-09T00:32:11.468Z,8.40
2023-04-09T00:34:45.960Z,8.40
2023-04-09T00:37:20.077Z,8.40
2023-04-09T00:39:54.198Z,8.40
2023-04-09T00:42:28.311Z,8.40
2023-04-09T00:45:02.318Z,8.40
2023-04-09T00:47:37.624Z,8.40
2023-04-09T00:50:13.336Z,8.40
2023-04-09T00:52:47.583Z,8.36
2023-04-09T00:55:24.845Z,8.30
2023-04-09T00:57:59.198Z,8.30
2023-04-09T01:00:33.280Z,8.34
2023-04-09T01:03:09.868Z,8.32
2023-04-09T01:05:55.906Z,8.30
2023-04-09T01:08:45.927Z,8.30
2023-04-09T01:11:37.242Z,8.30
2023-04-09T01:14:22.918Z,8.24
2023-04-09T01:17:06.264Z,8.24
2023-04-09T01:19:56.025Z,8.28
2023-04-09T01:22:58.938Z,8.24
2023-04-09T01:25:54.780Z,8.20
2023-04-09T01:28:35.776Z,8.20
2023-04-09T01:31:15.185Z,8.20
2023-04-09T01:33:49.709Z,8.20
2023-04-09T01:36:25.913Z,8.20
2023-04-09T01:39:03.775Z,8.20
2023-04-09T01:41:39.402Z,8.20
2023-04-09T01:44:16.158Z,8.20
2023-04-09T01:46:52.872Z,8.12
2023-04-09T01:49:27.347Z,8.10
2023-04-09T01:52:02.752Z,8.10
2023-04-09T01:54:36.802Z,8.02
2023-04-09T01:57:10.828Z,8.00
2023-04-09T01:59:45.244Z,8.00
2023-04-09T02:02:30.009Z,8.00
2023-04-09T02:05:10.807Z,7.90
2023-04-09T02:07:50.635Z,7.90
2023-04-09T02:10:28.326Z,7.82
2023-04-09T02:13:06.340Z,7.80
2023-04-09T02:15:42.875Z,7.80
2023-04-09T02:18:31.558Z,7.70
2023-04-09T02:21:08.348Z,7.70
2023-04-09T02:23:42.447Z,7.60
2023-04-09T02:26:16.490Z,7.58
2023-04-09T02:28:50.974Z,7.52
2023-04-09T02:31:25.411Z,7.50
2023-04-09T02:33:59.548Z,7.50
2023-04-09T02:36:33.682Z,7.50
2023-04-09T02:39:07.718Z,7.50
2023-04-09T02:41:41.813Z,7.50
2023-04-09T02:44:15.960Z,7.50
2023-04-09T02:46:52.083Z,7.50
2023-04-09T02:49:26.354Z,7.50
2023-04-09T02:52:00.471Z,7.50
2023-04-09T02:54:34.621Z,7.50
2023-04-09T02:57:08.696Z,7.50
2023-04-09T02:59:42.770Z,7.52
2023-04-09T03:02:16.949Z,7.60
2023-04-09T03:04:51.092Z,7.52
2023-04-09T03:07:25.229Z,7.50
2023-04-09T03:09:59.294Z,7.52
2023-04-09T03:12:33.355Z,7.58
2023-04-09T03:15:09.898Z,7.60
2023-04-09T03:17:44.162Z,7.60
2023-04-09T03:20:18.325Z,7.60
2023-04-09T03:22:52.321Z,7.64
2023-04-09T03:25:33.077Z,7.60
2023-04-09T03:28:09.095Z,7.60
2023-04-09T03:30:47.824Z,7.70
2023-04-09T03:33:22.356Z,7.70
2023-04-09T03:36:01.817Z,7.70
2023-04-09T03:38:43.074Z,7.70
2023-04-09T03:41:27.448Z,7.70
2023-04-09T03:44:02.003Z,7.70
2023-04-09T03:46:40.191Z,7.70
2023-04-09T03:49:14.809Z,7.70
2023-04-09T03:51:50.353Z,7.70
2023-04-09T03:54:24.428Z,7.68
2023-04-09T03:56:59.435Z,7.68
2023-04-09T03:59:33.452Z,7.64
2023-04-09T04:02:07.628Z,7.60
2023-04-09T04:04:42.838Z,7.62
2023-04-09T04:07:17.732Z,7.70
2023-04-09T04:09:56.377Z,7.66
2023-04-09T04:12:32.867Z,7.60
2023-04-09T04:15:30.083Z,7.60
2023-04-09T04:18:04.160Z,7.66
2023-04-09T04:21:04.523Z,7.70
2023-04-09T04:23:40.165Z,7.70
2023-04-09T04:26:30.418Z,7.72
2023-04-09T04:29:06.997Z,7.80
2023-04-09T04:31:59.657Z,7.78
2023-04-09T04:34:37.083Z,7.80
2023-04-09T04:37:20.163Z,7.80
2023-04-09T04:39:54.390Z,7.80
2023-04-09T04:42:28.907Z,7.80
2023-04-09T04:45:03.107Z,7.80
2023-04-09T04:47:46.477Z,7.80
2023-04-09T04:50:21.241Z,7.80
2023-04-09T04:53:08.163Z,7.80
2023-04-09T04:55:48.969Z,7.80
2023-04-09T04:58:25.932Z,7.80
2023-04-09T05:01:02.895Z,7.80
2023-04-09T05:03:37.372Z,7.80
2023-04-09T05:06:30.117Z,7.80
2023-04-09T05:09:04.884Z,7.80
2023-04-09T05:11:45.766Z,7.80
2023-04-09T05:14:24.182Z,7.80
2023-04-09T05:16:58.714Z,7.80
2023-04-09T05:19:36.391Z,7.80
2023-04-09T05:22:10.733Z,7.80
2023-04-09T05:24:44.788Z,7.88
2023-04-09T05:27:20.843Z,7.90
2023-04-09T05:29:55.753Z,7.90
2023-04-09T05:32:31.478Z,7.90
2023-04-09T05:35:06.338Z,7.90
2023-04-09T05:37:41.295Z,7.90
2023-04-09T05:40:17.710Z,7.90
2023-04-09T05:42:51.927Z,8.00
2023-04-09T05:45:42.403Z,8.00
2023-04-09T05:48:17.177Z,8.00
2023-04-09T05:50:56.052Z,8.00
2023-04-09T05:53:32.920Z,8.00
2023-04-09T05:56:14.364Z,8.00
2023-04-09T05:58:53.980Z,8.00
2023-04-09T06:01:28.341Z,8.00
2023-04-09T06:04:03.120Z,8.00
2023-04-09T06:06:40.358Z,8.02
2023-04-09T06:09:14.558Z,8.10
2023-04-09T06:11:48.640Z,8.10
2023-04-09T06:14:22.701Z,8.10
2023-04-09T06:16:57.121Z,8.20
2023-04-09T06:19:31.565Z,8.20
2023-04-09T06:22:13.393Z,8.30
2023-04-09T06:24:47.439Z,8.30
2023-04-09T06:27:22.239Z,8.30
2023-04-09T06:29:56.453Z,8.40
2023-04-09T06:32:33.639Z,8.40
2023-04-09T06:35:13.069Z,8.38
2023-04-09T06:37:47.421Z,8.38
2023-04-09T06:40:23.599Z,8.40
2023-04-09T06:42:57.852Z,8.40
2023-04-09T06:45:39.557Z,8.30
2023-04-09T06:48:14.930Z,8.30
2023-04-09T06:50:50.046Z,8.30
2023-04-09T06:53:24.157Z,8.30
2023-04-09T06:55:58.416Z,8.30
2023-04-09T06:58:32.664Z,8.20
2023-04-09T07:01:07.387Z,8.20
2023-04-09T07:03:41.902Z,8.12
2023-04-09T07:06:16.106Z,8.16
2023-04-09T07:08:50.231Z,8.10
2023-04-09T07:11:24.222Z,8.10
2023-04-09T07:13:58.646Z,8.20
2023-04-09T07:16:32.799Z,8.20
2023-04-09T07:19:07.622Z,8.18
2023-04-09T07:21:41.847Z,8.20
2023-04-09T07:24:15.953Z,8.20
2023-04-09T07:26:52.119Z,8.30
2023-04-09T07:29:27.388Z,8.30
2023-04-09T07:32:02.871Z,8.30
2023-04-09T07:34:37.717Z,8.30
2023-04-09T07:37:12.299Z,8.30
2023-04-09T07:39:46.746Z,8.38
2023-04-09T07:42:20.828Z,8.40
2023-04-09T07:44:55.168Z,8.46
2023-04-09T07:47:29.657Z,8.50
2023-04-09T07:50:04.098Z,8.60
2023-04-09T07:52:38.071Z,8.70
2023-04-09T07:55:13.052Z,8.70
2023-04-09T07:57:48.329Z,8.70
2023-04-09T08:00:23.546Z,8.74
2023-04-09T08:02:58.128Z,8.72
2023-04-09T08:05:32.440Z,8.70
2023-04-09T08:08:07.040Z,8.70
2023-04-09T08:10:41.539Z,8.70
2023-04-09T08:13:16.091Z,8.70
2023-04-09T08:15:50.261Z,8.64
2023-04-09T08:18:24.517Z,8.60
2023-04-09T08:20:58.795Z,8.60
2023-04-09T08:23:32.937Z,8.70
2023-04-09T08:26:07.211Z,8.70
2023-04-09T08:28:42.095Z,8.80
2023-04-09T08:31:16.310Z,8.80
2023-04-09T08:33:50.484Z,8.80
2023-04-09T08:36:24.887Z,8.78
2023-04-09T08:39:00.633Z,8.80
2023-04-09T08:41:35.833Z,8.78
2023-04-09T08:44:10.861Z,8.76
2023-04-09T08:46:45.336Z,8.80
2023-04-09T08:49:19.594Z,8.80
2023-04-09T08:51:53.940Z,8.80
2023-04-09T08:54:28.027Z,8.90
2023-04-09T08:57:05.627Z,8.90
2023-04-09T08:59:39.717Z,8.90
2023-04-09T09:02:14.563Z,8.96
2023-04-09T09:04:55.357Z,9.00
2023-04-09T09:07:31.176Z,9.00
2023-04-09T09:10:07.227Z,9.10
2023-04-09T09:12:43.461Z,9.20
2023-04-09T09:15:32.099Z,9.20
2023-04-09T09:18:07.341Z,9.20
2023-04-09T09:20:41.689Z,9.20
2023-04-09T09:23:16.279Z,9.20
2023-04-09T09:25:50.290Z,9.20
2023-04-09T09:28:24.870Z,9.10
2023-04-09T09:31:11.421Z,9.10
2023-04-09T09:33:46.304Z,9.10
2023-04-09T09:36:33.531Z,9.00
2023-04-09T09:39:10.503Z,9.04
2023-04-09T09:41:45.931Z,9.00
2023-04-09T09:44:36.448Z,9.00
2023-04-09T09:47:13.434Z,8.90
2023-04-09T09:49:49.118Z,8.90
2023-04-09T09:52:28.174Z,8.90
2023-04-09T09:55:07.940Z,8.90
2023-04-09T09:57:47.300Z,8.80
2023-04-09T10:00:25.680Z,8.80
2023-04-09T10:03:13.673Z,8.80
2023-04-09T10:05:50.123Z,8.80
2023-04-09T10:08:24.903Z,8.80
2023-04-09T10:10:59.232Z,8.80
2023-04-09T10:13:40.813Z,8.80
2023-04-09T10:16:15.608Z,8.90
2023-04-09T10:18:50.221Z,8.90
2023-04-09T10:21:38.554Z,8.90
2023-04-09T10:24:13.788Z,8.90
2023-04-09T10:26:48.939Z,8.90
2023-04-09T10:29:32.265Z,8.90
2023-04-09T10:32:11.775Z,8.94
2023-04-09T10:34:46.589Z,9.00
2023-04-09T10:37:27.408Z,9.00
2023-04-09T10:40:01.696Z,9.00
2023-04-09T10:42:42.218Z,9.10
2023-04-09T10:47:56.585Z,9.14
2023-04-09T10:50:36.618Z,9.12
2023-04-09T10:53:22.290Z,9.20
2023-04-09T10:55:57.499Z,9.20
2023-04-09T10:58:31.971Z,9.20
2023-04-09T11:01:06.268Z,9.20
2023-04-09T11:03:48.334Z,9.20
2023-04-09T11:06:26.161Z,9.20
2023-04-09T11:09:06.186Z,9.20
2023-04-09T11:11:40.793Z,9.16
2023-04-09T11:14:23.873Z,9.10
2023-04-09T11:16:58.751Z,9.10
2023-04-09T11:19:34.736Z,9.10
2023-04-09T11:22:09.862Z,9.10
2023-04-09T11:24:47.866Z,9.20
2023-04-09T11:27:22.049Z,9.20
2023-04-09T11:29:59.802Z,9.10
2023-04-09T11:32:35.370Z,9.10
2023-04-09T11:35:14.525Z,9.10
2023-04-09T11:37:50.440Z,9.10
2023-04-09T11:40:26.531Z,9.10
2023-04-09T11:43:01.128Z,9.10
2023-04-09T11:45:35.987Z,9.10
2023-04-09T11:48:10.751Z,9.10
2023-04-09T11:50:45.927Z,9.10
2023-04-09T11:53:24.936Z,9.08
2023-04-09T11:55:58.977Z,9.10
2023-04-09T11:58:33.153Z,9.20
2023-04-09T12:01:07.598Z,9.20
2023-04-09T12:03:41.852Z,9.30
2023-04-09T12:06:16.314Z,9.40
2023-04-09T12:08:54.313Z,9.40
2023-04-09T12:11:33.533Z,9.50
2023-04-09T12:14:08.084Z,9.50
2023-04-09T12:16:44.102Z,9.60
2023-04-09T12:19:20.061Z,9.60
2023-04-09T12:21:56.471Z,9.70
2023-04-09T12:24:31.061Z,9.70
2023-04-09T12:27:05.496Z,9.70
2023-04-09T12:29:39.640Z,9.72
2023-04-09T12:32:13.790Z,9.70
2023-04-09T12:34:50.012Z,9.70
2023-04-09T12:37:24.140Z,9.70
2023-04-09T12:39:58.249Z,9.64
2023-04-09T12:42:32.492Z,9.60
2023-04-09T12:45:08.052Z,9.64
2023-04-09T12:47:42.489Z,9.70
2023-04-09T12:50:18.968Z,9.70
2023-04-09T12:52:53.124Z,9.70
2023-04-09T12:55:28.079Z,9.70
2023-04-09T12:58:02.855Z,9.70
2023-04-09T13:00:37.019Z,9.80
2023-04-09T13:03:11.989Z,9.80
2023-04-09T13:05:46.341Z,9.80
2023-04-09T13:08:20.783Z,9.90
2023-04-09T13:10:55.030Z,9.90
2023-04-09T13:13:29.254Z,9.90
2023-04-09T13:16:03.465Z,10.00
2023-04-09T13:18:37.747Z,10.00
2023-04-09T13:21:15.050Z,10.00
2023-04-09T13:23:49.125Z,10.00
2023-04-09T13:26:23.458Z,10.00
2023-04-09T13:28:57.525Z,10.00
2023-04-09T13:31:31.775Z,10.00
2023-04-09T13:34:06.587Z,9.98
2023-04-09T13:36:40.737Z,9.90
2023-04-09T13:39:14.851Z,9.90
2023-04-09T13:41:49.093Z,9.90
2023-04-09T13:44:23.214Z,9.90
2023-04-09T13:46:57.757Z,9.88
2023-04-09T13:49:32.262Z,9.88
2023-04-09T13:52:06.504Z,9.80
2023-04-09T13:54:41.332Z,9.80
2023-04-09T13:57:16.915Z,9.80
2023-04-09T13:59:51.129Z,9.80
2023-04-09T14:02:25.668Z,9.70
2023-04-09T14:04:59.968Z,9.78
2023-04-09T14:07:34.186Z,9.78
2023-04-09T14:10:10.500Z,9.80
2023-04-09T14:12:44.677Z,9.80
2023-04-09T14:15:19.084Z,9.80
2023-04-09T14:17:53.274Z,9.78
2023-04-09T14:20:27.491Z,9.70
2023-04-09T14:23:02.525Z,9.70
2023-04-09T14:25:37.556Z,9.70
2023-04-09T14:28:11.732Z,9.70
2023-04-09T14:30:46.681Z,9.70
2023-04-09T14:33:20.752Z,9.70
2023-04-09T14:35:54.914Z,9.70
2023-04-09T14:38:29.065Z,9.70
2023-04-09T14:41:03.240Z,9.70
2023-04-09T14:43:37.598Z,9.68
2023-04-09T14:46:13.666Z,9.64
2023-04-09T14:48:47.846Z,9.70
2023-04-09T14:51:22.078Z,9.70
2023-04-09T14:53:56.131Z,9.70
2023-04-09T14:56:30.635Z,9.70
2023-04-09T14:59:05.309Z,9.70
2023-04-09T15:01:39.544Z,9.70
2023-04-09T15:04:15.160Z,9.70
2023-04-09T15:06:49.253Z,9.68
2023-04-09T15:09:23.355Z,9.70
2023-04-09T15:12:03.543Z,9.70
2023-04-09T15:14:38.477Z,9.68
2023-04-09T15:17:12.872Z,9.70
2023-04-09T15:19:46.938Z,9.60
2023-04-09T15:22:21.100Z,9.60
2023-04-09T15:24:56.488Z,9.60
2023-04-09T15:27:30.813Z,9.60
2023-04-09T15:30:05.479Z,9.60
2023-04-09T15:32:39.770Z,9.60
2023-04-09T15:35:19.121Z,9.60
2023-04-09T15:37:53.419Z,9.60
2023-04-09T15:40:29.178Z,9.60
2023-04-09T15:43:03.623Z,9.60
2023-04-09T15:45:38.207Z,9.60
2023-04-09T15:48:14.283Z,9.60
2023-04-09T15:50:48.606Z,9.60
2023-04-09T15:53:26.694Z,9.60
2023-04-09T15:56:01.097Z,9.60
2023-04-09T15:58:36.189Z,9.60
2023-04-09T16:01:13.367Z,9.60
2023-04-09T16:03:52.301Z,9.60
2023-04-09T16:06:27.497Z,9.60
2023-04-09T16:09:02.113Z,9.60
2023-04-09T16:11:37.678Z,9.60
2023-04-09T16:14:12.227Z,9.50
2023-04-09T16:16:49.988Z,9.50
2023-04-09T16:19:25.096Z,9.50
2023-04-09T16:21:59.245Z,9.40
2023-04-09T16:24:33.492Z,9.40
2023-04-09T16:27:08.331Z,9.40
2023-04-09T16:29:42.898Z,9.40
2023-04-09T16:32:17.445Z,9.40
2023-04-09T16:34:52.057Z,9.40
2023-04-09T16:37:26.245Z,9.40
2023-04-09T16:40:03.140Z,9.40
2023-04-09T16:42:38.020Z,9.40
2023-04-09T16:45:14.382Z,9.40
2023-04-09T16:47:51.407Z,9.40
2023-04-09T16:50:27.622Z,9.40
2023-04-09T16:53:04.560Z,9.32
2023-04-09T16:55:39.846Z,9.30
2023-04-09T16:58:14.385Z,9.30
2023-04-09T17:00:50.737Z,9.30
2023-04-09T17:03:26.824Z,9.30
2023-04-09T17:06:01.902Z,9.26
2023-04-09T17:08:37.054Z,9.20
2023-04-09T17:14:53.746Z,9.20
2023-04-09T17:17:28.419Z,9.20
2023-04-09T17:20:03.462Z,9.20
2023-04-09T17:22:39.423Z,9.20
2023-04-09T17:25:14.495Z,9.20
2023-04-09T17:27:49.777Z,9.20
2023-04-09T17:30:24.840Z,9.20
2023-04-09T17:32:59.393Z,9.20
2023-04-09T17:35:34.234Z,9.20
2023-04-09T17:38:08.893Z,9.10
2023-04-09T17:40:43.749Z,9.10
2023-04-09T17:43:18.447Z,9.10
2023-04-09T17:45:52.820Z,9.10
2023-04-09T17:48:30.124Z,9.10
2023-04-09T17:51:06.965Z,9.10
2023-04-09T17:53:41.568Z,9.10
2023-04-09T17:56:22.840Z,9.14
2023-04-09T17:58:57.205Z,9.12
2023-04-09T18:01:31.902Z,9.16
2023-04-09T18:04:06.392Z,9.18
2023-04-09T18:06:40.771Z,9.14
2023-04-09T18:09:15.063Z,9.18
2023-04-09T18:11:53.629Z,9.20
2023-04-09T18:14:28.115Z,9.20
2023-04-09T18:17:03.514Z,9.20
2023-04-09T18:19:37.651Z,9.20
2023-04-09T18:22:11.998Z,9.18
2023-04-09T18:24:46.635Z,9.10
2023-04-09T18:27:21.782Z,9.10
2023-04-09T18:29:56.589Z,9.14
2023-04-09T18:32:31.206Z,9.10
2023-04-09T18:35:05.672Z,9.10
2023-04-09T18:37:39.789Z,9.08
2023-04-09T18:40:18.606Z,9.06
2023-04-09T18:42:55.919Z,9.06
2023-04-09T18:45:30.768Z,9.08
2023-04-09T18:48:08.312Z,9.10
2023-04-09T18:50:42.764Z,9.10
2023-04-09T18:53:17.042Z,9.10
2023-04-09T18:55:51.213Z,9.10
2023-04-09T18:58:25.302Z,9.10
2023-04-09T19:01:00.604Z,9.10
2023-04-09T19:03:35.289Z,9.10
2023-04-09T19:06:18.221Z,9.10
2023-04-09T19:08:58.134Z,9.10
2023-04-09T19:11:33.839Z,9.10
2023-04-09T19:14:10.557Z,9.14
2023-04-09T19:16:45.640Z,9.20
2023-04-09T19:19:20.108Z,9.20
2023-04-09T19:21:54.614Z,9.14
2023-04-09T19:24:29.308Z,9.10
2023-04-09T19:27:09.856Z,9.02
2023-04-09T19:29:45.596Z,9.00
2023-04-09T19:32:20.481Z,9.00
2023-04-09T19:34:55.281Z,9.00
2023-04-09T19:37:30.560Z,9.00
2023-04-09T19:40:06.073Z,9.00
2023-04-09T19:42:41.436Z,9.00
2023-04-09T19:45:17.726Z,9.00
2023-04-09T19:47:53.843Z,9.04
2023-04-09T19:50:29.703Z,9.08
2023-04-09T19:53:04.562Z,9.00
2023-04-09T19:55:40.878Z,9.00
2023-04-09T19:58:15.461Z,9.00
2023-04-09T20:00:51.494Z,9.00
2023-04-09T20:03:26.061Z,9.02
2023-04-09T20:06:01.060Z,9.08
2023-04-09T20:08:35.366Z,9.10
2023-04-09T20:11:10.255Z,9.08
2023-04-09T20:13:44.571Z,9.00
2023-04-09T20:16:20.742Z,9.00
2023-04-09T20:18:55.352Z,8.98
2023-04-09T20:21:29.978Z,8.88
2023-04-09T20:24:04.945Z,8.78
2023-04-09T20:26:39.275Z,8.70
2023-04-09T20:29:13.860Z,8.70
2023-04-09T20:31:48.211Z,8.60
2023-04-09T20:34:26.701Z,8.60
2023-04-09T20:37:01.806Z,8.60
2023-04-09T20:39:36.406Z,8.52
2023-04-09T20:42:10.519Z,8.50
2023-04-09T20:44:44.924Z,8.40
2023-04-09T20:47:20.938Z,8.38
2023-04-09T20:49:59.667Z,8.30
2023-04-09T20:52:33.914Z,8.20
2023-04-09T20:55:10.709Z,8.18
2023-04-09T20:57:44.937Z,8.10
2023-04-09T21:00:19.548Z,8.10
2023-04-09T21:02:54.269Z,8.10
2023-04-09T21:05:30.568Z,8.10
2023-04-09T21:08:04.929Z,8.10
2023-04-09T21:10:39.677Z,8.08
2023-04-09T21:13:13.876Z,8.08
2023-04-09T21:15:48.161Z,8.10
2023-04-09T21:18:22.568Z,8.10
2023-04-09T21:20:56.788Z,8.10
2023-04-09T21:23:31.113Z,8.10
2023-04-09T21:26:06.216Z,8.20
2023-04-09T21:28:40.465Z,8.16
2023-04-09T21:31:16.283Z,8.10
2023-04-09T21:33:51.218Z,8.10
2023-04-09T21:36:27.227Z,8.10
2023-04-09T21:39:01.578Z,8.10
2023-04-09T21:41:36.059Z,8.10
2023-04-09T21:44:10.803Z,8.00
2023-04-09T21:46:46.163Z,8.00
2023-04-09T21:49:20.422Z,7.90
2023-04-09T21:51:55.865Z,7.90
2023-04-09T21:54:32.763Z,7.90
2023-04-09T21:57:07.004Z,7.90
2023-04-09T21:59:41.604Z,7.90
2023-04-09T22:02:16.149Z,7.80
2023-04-09T22:04:51.262Z,7.80
2023-04-09T22:07:25.996Z,7.70
2023-04-09T22:10:02.235Z,7.70
2023-04-09T22:12:37.341Z,7.70
2023-04-09T22:15:13.527Z,7.66
2023-04-09T22:17:47.850Z,7.60
2023-04-09T22:20:24.473Z,7.50
2023-04-09T22:22:58.872Z,7.50
2023-04-09T22:25:35.285Z,7.50
2023-04-09T22:28:12.339Z,7.40
2023-04-09T22:30:46.713Z,7.34
2023-04-09T22:33:21.120Z,7.30
2023-04-09T22:35:59.586Z,7.22
2023-04-09T22:38:34.590Z,7.20
2023-04-09T22:41:09.427Z,7.20
2023-04-09T22:43:43.697Z,7.20
2023-04-09T22:46:18.005Z,7.20
2023-04-09T22:48:53.961Z,7.20
2023-04-09T22:51:28.304Z,7.20
2023-04-09T22:54:02.829Z,7.20
2023-04-09T22:56:38.323Z,7.24
2023-04-09T22:59:12.788Z,7.20
2023-04-09T23:01:47.380Z,7.10
2023-04-09T23:04:25.365Z,7.08
2023-04-09T23:06:59.502Z,7.00
2023-04-09T23:09:33.629Z,6.94
2023-04-09T23:12:07.916Z,6.90
2023-04-09T23:14:42.230Z,6.90
2023-04-09T23:17:16.461Z,6.90
2023-04-09T23:19:50.862Z,6.90
2023-04-09T23:22:27.220Z,7.00
2023-04-09T23:25:01.405Z,7.00
2023-04-09T23:27:35.629Z,7.00
2023-04-09T23:30:16.819Z,7.00
2023-04-09T23:32:52.643Z,7.00
2023-04-09T23:35:27.035Z,7.00
2023-04-09T23:38:01.146Z,7.00
2023-04-09T23:40:35.198Z,7.10
2023-04-09T23:43:09.550Z,7.10
2023-04-09T23:45:43.978Z,7.00
2023-04-09T23:48:18.127Z,7.00
2023-04-09T23:50:52.257Z,7.00
2023-04-09T23:53:26.400Z,7.10
2023-04-09T23:56:00.872Z,7.10
2023-04-09T23:58:34.921Z,7.10
